sensor_id;sensor_type;location;lat;lon;timestamp;temperature;humidity
13808;DHT22;40769;51.512;5.494;2023-06-19T00:02:06;25.30;92.80
13808;DHT22;40769;51.512;5.494;2023-06-19T00:04:32;25.10;92.90
13808;DHT22;40769;51.512;5.494;2023-06-19T00:07:00;25.10;93.10
13808;DHT22;40769;51.512;5.494;2023-06-19T00:09:25;25.10;93.30
13808;DHT22;40769;51.512;5.494;2023-06-19T00:11:51;25.10;93.20
13808;DHT22;40769;51.512;5.494;2023-06-19T00:14:17;25.10;93.40
13808;DHT22;40769;51.512;5.494;2023-06-19T00:16:43;25.00;93.50
13808;DHT22;40769;51.512;5.494;2023-06-19T00:19:09;25.00;93.50
13808;DHT22;40769;51.512;5.494;2023-06-19T00:21:36;25.00;93.60
13808;DHT22;40769;51.512;5.494;2023-06-19T00:24:03;25.00;93.80
13808;DHT22;40769;51.512;5.494;2023-06-19T00:26:30;24.90;93.90
13808;DHT22;40769;51.512;5.494;2023-06-19T00:28:57;24.90;94.00
13808;DHT22;40769;51.512;5.494;2023-06-19T00:31:22;24.80;94.10
13808;DHT22;40769;51.512;5.494;2023-06-19T00:33:49;24.80;94.40
13808;DHT22;40769;51.512;5.494;2023-06-19T00:36:16;24.70;94.60
13808;DHT22;40769;51.512;5.494;2023-06-19T00:38:46;24.60;94.70
13808;DHT22;40769;51.512;5.494;2023-06-19T00:41:13;24.50;95.00
13808;DHT22;40769;51.512;5.494;2023-06-19T00:43:40;24.50;95.20
13808;DHT22;40769;51.512;5.494;2023-06-19T00:46:05;24.40;95.50
13808;DHT22;40769;51.512;5.494;2023-06-19T00:48:32;24.40;95.90
13808;DHT22;40769;51.512;5.494;2023-06-19T00:50:59;24.30;96.20
13808;DHT22;40769;51.512;5.494;2023-06-19T00:53:25;24.30;96.50
13808;DHT22;40769;51.512;5.494;2023-06-19T00:55:53;24.20;96.80
13808;DHT22;40769;51.512;5.494;2023-06-19T00:58:22;24.10;97.20
13808;DHT22;40769;51.512;5.494;2023-06-19T01:00:48;24.10;97.90
13808;DHT22;40769;51.512;5.494;2023-06-19T01:03:15;24.00;98.10
13808;DHT22;40769;51.512;5.494;2023-06-19T01:05:41;24.00;98.70
13808;DHT22;40769;51.512;5.494;2023-06-19T01:08:41;23.90;99.10
13808;DHT22;40769;51.512;5.494;2023-06-19T01:11:07;23.80;99.90
13808;DHT22;40769;51.512;5.494;2023-06-19T01:13:40;23.80;99.90
13808;DHT22;40769;51.512;5.494;2023-06-19T01:16:07;23.70;99.90
13808;DHT22;40769;51.512;5.494;2023-06-19T01:18:33;23.90;99.90
13808;DHT22;40769;51.512;5.494;2023-06-19T01:21:13;23.60;99.90
13808;DHT22;40769;51.512;5.494;2023-06-19T01:23:39;23.60;99.90
13808;DHT22;40769;51.512;5.494;2023-06-19T01:26:06;23.60;99.90
13808;DHT22;40769;51.512;5.494;2023-06-19T01:28:33;23.50;99.90
13808;DHT22;40769;51.512;5.494;2023-06-19T01:31:00;23.50;99.90
13808;DHT22;40769;51.512;5.494;2023-06-19T01:33:28;23.40;99.90
13808;DHT22;40769;51.512;5.494;2023-06-19T01:35:56;23.40;99.90
13808;DHT22;40769;51.512;5.494;2023-06-19T01:38:23;23.40;99.90
13808;DHT22;40769;51.512;5.494;2023-06-19T01:40:52;23.30;99.90
13808;DHT22;40769;51.512;5.494;2023-06-19T01:43:19;23.20;99.90
13808;DHT22;40769;51.512;5.494;2023-06-19T01:45:45;23.20;99.90
13808;DHT22;40769;51.512;5.494;2023-06-19T01:48:11;23.10;99.90
13808;DHT22;40769;51.512;5.494;2023-06-19T01:50:38;23.10;99.90
13808;DHT22;40769;51.512;5.494;2023-06-19T01:53:03;23.00;99.90
13808;DHT22;40769;51.512;5.494;2023-06-19T01:55:29;23.00;99.90
13808;DHT22;40769;51.512;5.494;2023-06-19T01:57:54;23.00;99.90
13808;DHT22;40769;51.512;5.494;2023-06-19T02:00:20;22.90;99.90
13808;DHT22;40769;51.512;5.494;2023-06-19T02:02:45;22.90;99.90
13808;DHT22;40769;51.512;5.494;2023-06-19T02:05:11;22.90;99.90
13808;DHT22;40769;51.512;5.494;2023-06-19T02:07:37;22.80;99.90
13808;DHT22;40769;51.512;5.494;2023-06-19T02:10:03;22.80;99.90
13808;DHT22;40769;51.512;5.494;2023-06-19T02:12:30;22.80;99.90
13808;DHT22;40769;51.512;5.494;2023-06-19T02:14:55;22.70;99.90
13808;DHT22;40769;51.512;5.494;2023-06-19T02:17:21;22.60;99.90
13808;DHT22;40769;51.512;5.494;2023-06-19T02:19:46;22.70;99.90
13808;DHT22;40769;51.512;5.494;2023-06-19T02:22:13;22.50;99.90
13808;DHT22;40769;51.512;5.494;2023-06-19T02:24:39;22.50;99.90
13808;DHT22;40769;51.512;5.494;2023-06-19T02:27:05;22.50;99.90
13808;DHT22;40769;51.512;5.494;2023-06-19T02:29:31;22.50;99.90
13808;DHT22;40769;51.512;5.494;2023-06-19T02:31:59;22.40;99.90
13808;DHT22;40769;51.512;5.494;2023-06-19T02:34:25;22.40;99.90
13808;DHT22;40769;51.512;5.494;2023-06-19T02:36:50;22.40;99.90
13808;DHT22;40769;51.512;5.494;2023-06-19T02:39:16;22.30;99.90
13808;DHT22;40769;51.512;5.494;2023-06-19T02:41:42;22.30;99.90
13808;DHT22;40769;51.512;5.494;2023-06-19T02:44:11;22.20;99.90
13808;DHT22;40769;51.512;5.494;2023-06-19T02:46:37;22.20;99.90
13808;DHT22;40769;51.512;5.494;2023-06-19T02:49:03;22.10;99.90
13808;DHT22;40769;51.512;5.494;2023-06-19T02:51:29;22.00;99.90
13808;DHT22;40769;51.512;5.494;2023-06-19T02:53:54;22.00;99.90
13808;DHT22;40769;51.512;5.494;2023-06-19T02:56:20;22.00;99.90
13808;DHT22;40769;51.512;5.494;2023-06-19T02:58:45;21.90;99.90
13808;DHT22;40769;51.512;5.494;2023-06-19T03:01:11;21.90;99.90
13808;DHT22;40769;51.512;5.494;2023-06-19T03:03:37;21.80;99.90
13808;DHT22;40769;51.512;5.494;2023-06-19T03:06:04;21.80;99.90
13808;DHT22;40769;51.512;5.494;2023-06-19T03:08:30;21.70;99.90
13808;DHT22;40769;51.512;5.494;2023-06-19T03:10:55;21.70;99.90
13808;DHT22;40769;51.512;5.494;2023-06-19T03:13:21;21.70;99.90
13808;DHT22;40769;51.512;5.494;2023-06-19T03:15:46;21.70;99.90
13808;DHT22;40769;51.512;5.494;2023-06-19T03:18:12;21.60;99.90
13808;DHT22;40769;51.512;5.494;2023-06-19T03:20:38;21.60;99.90
13808;DHT22;40769;51.512;5.494;2023-06-19T03:23:03;21.70;99.90
13808;DHT22;40769;51.512;5.494;2023-06-19T03:25:29;21.60;99.90
13808;DHT22;40769;51.512;5.494;2023-06-19T03:28:00;21.60;99.90
13808;DHT22;40769;51.512;5.494;2023-06-19T03:30:27;21.50;99.90
13808;DHT22;40769;51.512;5.494;2023-06-19T03:32:53;21.50;99.90
13808;DHT22;40769;51.512;5.494;2023-06-19T03:35:18;21.50;99.90
13808;DHT22;40769;51.512;5.494;2023-06-19T03:37:44;21.40;99.90
13808;DHT22;40769;51.512;5.494;2023-06-19T03:40:11;21.40;99.90
13808;DHT22;40769;51.512;5.494;2023-06-19T03:42:39;21.40;99.90
13808;DHT22;40769;51.512;5.494;2023-06-19T03:45:05;21.40;99.90
13808;DHT22;40769;51.512;5.494;2023-06-19T03:47:31;21.40;99.90
13808;DHT22;40769;51.512;5.494;2023-06-19T03:49:57;21.40;99.90
13808;DHT22;40769;51.512;5.494;2023-06-19T03:52:22;21.40;99.90
13808;DHT22;40769;51.512;5.494;2023-06-19T03:54:48;21.40;99.90
13808;DHT22;40769;51.512;5.494;2023-06-19T03:57:15;21.40;99.90
13808;DHT22;40769;51.512;5.494;2023-06-19T03:59:40;21.40;99.90
13808;DHT22;40769;51.512;5.494;2023-06-19T04:02:06;21.40;99.90
13808;DHT22;40769;51.512;5.494;2023-06-19T04:04:34;21.40;99.90
13808;DHT22;40769;51.512;5.494;2023-06-19T04:07:00;21.50;99.90
13808;DHT22;40769;51.512;5.494;2023-06-19T04:09:25;21.50;99.90
13808;DHT22;40769;51.512;5.494;2023-06-19T04:11:51;21.60;99.90
13808;DHT22;40769;51.512;5.494;2023-06-19T04:14:17;21.60;99.90
13808;DHT22;40769;51.512;5.494;2023-06-19T04:16:42;21.60;99.90
13808;DHT22;40769;51.512;5.494;2023-06-19T04:19:08;21.70;99.90
13808;DHT22;40769;51.512;5.494;2023-06-19T04:21:33;21.70;99.90
13808;DHT22;40769;51.512;5.494;2023-06-19T04:23:59;21.80;99.90
13808;DHT22;40769;51.512;5.494;2023-06-19T04:26:25;21.80;99.90
13808;DHT22;40769;51.512;5.494;2023-06-19T04:28:53;21.80;99.90
13808;DHT22;40769;51.512;5.494;2023-06-19T04:31:19;21.90;99.90
13808;DHT22;40769;51.512;5.494;2023-06-19T04:33:45;22.00;99.90
13808;DHT22;40769;51.512;5.494;2023-06-19T04:36:11;21.90;99.90
13808;DHT22;40769;51.512;5.494;2023-06-19T04:38:37;22.00;99.90
13808;DHT22;40769;51.512;5.494;2023-06-19T04:41:02;22.10;99.90
13808;DHT22;40769;51.512;5.494;2023-06-19T04:43:28;22.10;99.90
13808;DHT22;40769;51.512;5.494;2023-06-19T04:45:53;22.10;99.90
13808;DHT22;40769;51.512;5.494;2023-06-19T04:48:19;22.10;99.90
13808;DHT22;40769;51.512;5.494;2023-06-19T04:50:45;22.10;99.90
13808;DHT22;40769;51.512;5.494;2023-06-19T04:53:10;22.20;99.90
13808;DHT22;40769;51.512;5.494;2023-06-19T04:55:37;22.20;99.90
13808;DHT22;40769;51.512;5.494;2023-06-19T04:58:03;22.50;99.90
13808;DHT22;40769;51.512;5.494;2023-06-19T05:00:28;22.30;99.90
13808;DHT22;40769;51.512;5.494;2023-06-19T05:02:54;22.30;99.90
13808;DHT22;40769;51.512;5.494;2023-06-19T05:05:25;22.30;99.90
13808;DHT22;40769;51.512;5.494;2023-06-19T05:07:52;22.40;99.90
13808;DHT22;40769;51.512;5.494;2023-06-19T05:10:17;22.40;99.90
13808;DHT22;40769;51.512;5.494;2023-06-19T05:12:44;22.40;99.90
13808;DHT22;40769;51.512;5.494;2023-06-19T05:15:10;22.40;99.90
13808;DHT22;40769;51.512;5.494;2023-06-19T05:17:35;22.50;99.90
13808;DHT22;40769;51.512;5.494;2023-06-19T05:20:07;22.50;99.90
13808;DHT22;40769;51.512;5.494;2023-06-19T05:22:33;22.60;99.90
13808;DHT22;40769;51.512;5.494;2023-06-19T05:25:00;22.60;99.90
13808;DHT22;40769;51.512;5.494;2023-06-19T05:27:25;22.70;99.90
13808;DHT22;40769;51.512;5.494;2023-06-19T05:29:51;22.70;99.90
13808;DHT22;40769;51.512;5.494;2023-06-19T05:32:17;22.80;99.90
13808;DHT22;40769;51.512;5.494;2023-06-19T05:34:42;22.80;99.90
13808;DHT22;40769;51.512;5.494;2023-06-19T05:37:08;22.80;99.90
13808;DHT22;40769;51.512;5.494;2023-06-19T05:39:34;22.80;99.90
13808;DHT22;40769;51.512;5.494;2023-06-19T05:41:59;22.90;99.90
13808;DHT22;40769;51.512;5.494;2023-06-19T05:44:25;22.90;99.90
13808;DHT22;40769;51.512;5.494;2023-06-19T05:46:50;23.00;99.90
13808;DHT22;40769;51.512;5.494;2023-06-19T05:49:16;23.00;99.90
13808;DHT22;40769;51.512;5.494;2023-06-19T05:51:42;23.00;99.90
13808;DHT22;40769;51.512;5.494;2023-06-19T05:54:07;23.00;99.90
13808;DHT22;40769;51.512;5.494;2023-06-19T05:56:35;23.10;99.90
13808;DHT22;40769;51.512;5.494;2023-06-19T05:59:02;23.10;99.90
13808;DHT22;40769;51.512;5.494;2023-06-19T06:01:28;23.10;99.90
13808;DHT22;40769;51.512;5.494;2023-06-19T06:03:54;23.20;99.90
13808;DHT22;40769;51.512;5.494;2023-06-19T06:06:20;23.20;99.90
13808;DHT22;40769;51.512;5.494;2023-06-19T06:08:46;23.30;99.90
13808;DHT22;40769;51.512;5.494;2023-06-19T06:11:11;23.30;99.90
13808;DHT22;40769;51.512;5.494;2023-06-19T06:13:37;23.40;99.90
13808;DHT22;40769;51.512;5.494;2023-06-19T06:16:03;23.40;99.90
13808;DHT22;40769;51.512;5.494;2023-06-19T06:18:28;23.50;99.90
13808;DHT22;40769;51.512;5.494;2023-06-19T06:20:54;23.60;99.90
13808;DHT22;40769;51.512;5.494;2023-06-19T06:23:19;23.70;99.90
13808;DHT22;40769;51.512;5.494;2023-06-19T06:25:48;23.70;99.90
13808;DHT22;40769;51.512;5.494;2023-06-19T06:28:13;22.90;99.90
13808;DHT22;40769;51.512;5.494;2023-06-19T06:30:40;23.90;99.90
13808;DHT22;40769;51.512;5.494;2023-06-19T06:33:05;24.00;99.90
13808;DHT22;40769;51.512;5.494;2023-06-19T06:35:34;24.10;99.90
13808;DHT22;40769;51.512;5.494;2023-06-19T06:38:01;24.20;99.90
13808;DHT22;40769;51.512;5.494;2023-06-19T06:40:27;24.30;99.90
13808;DHT22;40769;51.512;5.494;2023-06-19T06:42:53;24.50;99.90
13808;DHT22;40769;51.512;5.494;2023-06-19T06:45:19;24.70;99.90
13808;DHT22;40769;51.512;5.494;2023-06-19T06:47:45;24.80;99.90
13808;DHT22;40769;51.512;5.494;2023-06-19T06:50:11;25.00;99.90
13808;DHT22;40769;51.512;5.494;2023-06-19T06:52:37;25.10;99.90
13808;DHT22;40769;51.512;5.494;2023-06-19T06:55:03;25.30;99.90
13808;DHT22;40769;51.512;5.494;2023-06-19T06:57:29;25.40;99.90
13808;DHT22;40769;51.512;5.494;2023-06-19T06:59:54;25.60;99.90
13808;DHT22;40769;51.512;5.494;2023-06-19T07:02:20;25.70;99.90
13808;DHT22;40769;51.512;5.494;2023-06-19T07:04:45;25.80;99.90
13808;DHT22;40769;51.512;5.494;2023-06-19T07:07:11;25.90;99.90
13808;DHT22;40769;51.512;5.494;2023-06-19T07:09:36;25.90;99.90
13808;DHT22;40769;51.512;5.494;2023-06-19T07:12:02;26.00;99.90
13808;DHT22;40769;51.512;5.494;2023-06-19T07:14:30;26.10;99.90
13808;DHT22;40769;51.512;5.494;2023-06-19T07:16:56;26.20;99.90
13808;DHT22;40769;51.512;5.494;2023-06-19T07:19:21;26.30;99.90
13808;DHT22;40769;51.512;5.494;2023-06-19T07:21:47;26.50;99.90
13808;DHT22;40769;51.512;5.494;2023-06-19T07:24:14;26.60;99.90
13808;DHT22;40769;51.512;5.494;2023-06-19T07:26:40;26.70;99.90
13808;DHT22;40769;51.512;5.494;2023-06-19T07:29:06;26.90;99.90
13808;DHT22;40769;51.512;5.494;2023-06-19T07:31:31;27.10;99.90
13808;DHT22;40769;51.512;5.494;2023-06-19T07:33:57;27.30;99.90
13808;DHT22;40769;51.512;5.494;2023-06-19T07:36:22;27.50;99.90
13808;DHT22;40769;51.512;5.494;2023-06-19T07:38:48;27.70;99.90
13808;DHT22;40769;51.512;5.494;2023-06-19T07:41:13;27.80;99.90
13808;DHT22;40769;51.512;5.494;2023-06-19T07:43:39;28.00;99.90
13808;DHT22;40769;51.512;5.494;2023-06-19T07:46:05;28.10;99.90
13808;DHT22;40769;51.512;5.494;2023-06-19T07:48:30;28.20;99.90
13808;DHT22;40769;51.512;5.494;2023-06-19T07:50:56;28.20;99.90
13808;DHT22;40769;51.512;5.494;2023-06-19T07:53:22;28.30;99.90
13808;DHT22;40769;51.512;5.494;2023-06-19T07:55:47;28.30;99.90
13808;DHT22;40769;51.512;5.494;2023-06-19T07:58:13;28.40;99.90
13808;DHT22;40769;51.512;5.494;2023-06-19T08:00:39;28.50;99.90
13808;DHT22;40769;51.512;5.494;2023-06-19T08:03:05;28.50;99.90
13808;DHT22;40769;51.512;5.494;2023-06-19T08:05:30;28.60;99.90
13808;DHT22;40769;51.512;5.494;2023-06-19T08:07:58;28.70;99.90
13808;DHT22;40769;51.512;5.494;2023-06-19T08:10:23;28.80;99.90
13808;DHT22;40769;51.512;5.494;2023-06-19T08:12:49;28.90;99.90
13808;DHT22;40769;51.512;5.494;2023-06-19T08:15:14;29.00;99.90
13808;DHT22;40769;51.512;5.494;2023-06-19T08:17:40;29.20;99.90
13808;DHT22;40769;51.512;5.494;2023-06-19T08:20:07;29.30;99.90
13808;DHT22;40769;51.512;5.494;2023-06-19T08:22:34;29.40;99.90
13808;DHT22;40769;51.512;5.494;2023-06-19T08:24:59;29.50;99.90
13808;DHT22;40769;51.512;5.494;2023-06-19T08:27:25;29.50;99.90
13808;DHT22;40769;51.512;5.494;2023-06-19T08:29:51;29.60;99.90
13808;DHT22;40769;51.512;5.494;2023-06-19T08:32:16;29.70;99.90
13808;DHT22;40769;51.512;5.494;2023-06-19T08:34:42;29.80;99.90
13808;DHT22;40769;51.512;5.494;2023-06-19T08:37:08;29.90;99.90
13808;DHT22;40769;51.512;5.494;2023-06-19T08:39:34;30.00;99.90
13808;DHT22;40769;51.512;5.494;2023-06-19T08:42:05;30.10;99.90
13808;DHT22;40769;51.512;5.494;2023-06-19T08:44:33;30.20;99.90
13808;DHT22;40769;51.512;5.494;2023-06-19T08:46:59;30.20;99.90
13808;DHT22;40769;51.512;5.494;2023-06-19T08:49:25;30.10;99.90
13808;DHT22;40769;51.512;5.494;2023-06-19T08:51:50;30.10;99.90
13808;DHT22;40769;51.512;5.494;2023-06-19T08:54:17;30.00;99.90
13808;DHT22;40769;51.512;5.494;2023-06-19T08:56:43;29.90;99.90
13808;DHT22;40769;51.512;5.494;2023-06-19T09:01:38;30.10;99.90
13808;DHT22;40769;51.512;5.494;2023-06-19T09:04:12;30.20;99.90
13808;DHT22;40769;51.512;5.494;2023-06-19T09:06:58;30.40;99.90
13808;DHT22;40769;51.512;5.494;2023-06-19T09:09:25;30.50;99.90
13808;DHT22;40769;51.512;5.494;2023-06-19T09:14:36;30.80;99.90
13808;DHT22;40769;51.512;5.494;2023-06-19T09:17:07;31.00;99.90
13808;DHT22;40769;51.512;5.494;2023-06-19T09:19:34;31.20;99.90
13808;DHT22;40769;51.512;5.494;2023-06-19T09:22:08;31.30;99.90
13808;DHT22;40769;51.512;5.494;2023-06-19T09:27:11;31.70;99.60
13808;DHT22;40769;51.512;5.494;2023-06-19T09:29:43;31.80;97.70
13808;DHT22;40769;51.512;5.494;2023-06-19T09:32:20;31.80;97.00
13808;DHT22;40769;51.512;5.494;2023-06-19T09:34:46;31.90;96.20
13808;DHT22;40769;51.512;5.494;2023-06-19T09:37:12;32.00;97.10
13808;DHT22;40769;51.512;5.494;2023-06-19T09:39:39;32.00;96.50
13808;DHT22;40769;51.512;5.494;2023-06-19T09:42:07;32.10;95.60
13808;DHT22;40769;51.512;5.494;2023-06-19T09:44:41;32.20;94.70
13808;DHT22;40769;51.512;5.494;2023-06-19T09:47:18;32.20;93.30
13808;DHT22;40769;51.512;5.494;2023-06-19T09:50:06;32.20;93.60
13808;DHT22;40769;51.512;5.494;2023-06-19T09:52:33;32.30;93.20
13808;DHT22;40769;51.512;5.494;2023-06-19T09:55:05;32.50;94.00
13808;DHT22;40769;51.512;5.494;2023-06-19T09:57:33;32.50;92.70
13808;DHT22;40769;51.512;5.494;2023-06-19T10:00:02;32.70;92.90
13808;DHT22;40769;51.512;5.494;2023-06-19T10:02:35;32.70;92.20
13808;DHT22;40769;51.512;5.494;2023-06-19T10:05:01;32.80;92.20
13808;DHT22;40769;51.512;5.494;2023-06-19T10:07:33;32.90;92.00
13808;DHT22;40769;51.512;5.494;2023-06-19T10:10:05;33.00;90.90
13808;DHT22;40769;51.512;5.494;2023-06-19T10:12:45;33.10;90.90
13808;DHT22;40769;51.512;5.494;2023-06-19T10:15:18;33.30;90.20
13808;DHT22;40769;51.512;5.494;2023-06-19T10:17:49;33.30;90.60
13808;DHT22;40769;51.512;5.494;2023-06-19T10:20:29;33.30;90.00
13808;DHT22;40769;51.512;5.494;2023-06-19T10:23:22;33.40;87.90
13808;DHT22;40769;51.512;5.494;2023-06-19T10:25:56;33.50;86.90
13808;DHT22;40769;51.512;5.494;2023-06-19T10:28:27;33.60;86.60
13808;DHT22;40769;51.512;5.494;2023-06-19T10:31:07;33.60;85.60
13808;DHT22;40769;51.512;5.494;2023-06-19T10:33:37;33.60;87.00
13808;DHT22;40769;51.512;5.494;2023-06-19T10:36:20;33.60;84.00
13808;DHT22;40769;51.512;5.494;2023-06-19T10:38:47;33.60;83.50
13808;DHT22;40769;51.512;5.494;2023-06-19T10:41:20;33.60;85.00
13808;DHT22;40769;51.512;5.494;2023-06-19T10:44:00;33.60;82.00
13808;DHT22;40769;51.512;5.494;2023-06-19T10:46:34;33.70;81.30
13808;DHT22;40769;51.512;5.494;2023-06-19T10:49:05;33.70;81.00
13808;DHT22;40769;51.512;5.494;2023-06-19T10:51:34;33.70;82.30
13808;DHT22;40769;51.512;5.494;2023-06-19T10:54:03;33.70;81.90
13808;DHT22;40769;51.512;5.494;2023-06-19T10:56:29;33.70;81.40
13808;DHT22;40769;51.512;5.494;2023-06-19T10:59:10;33.60;81.10
13808;DHT22;40769;51.512;5.494;2023-06-19T11:01:41;33.60;78.90
13808;DHT22;40769;51.512;5.494;2023-06-19T11:04:08;33.50;79.90
13808;DHT22;40769;51.512;5.494;2023-06-19T11:06:35;33.30;78.60
13808;DHT22;40769;51.512;5.494;2023-06-19T11:09:01;33.20;80.10
13808;DHT22;40769;51.512;5.494;2023-06-19T11:14:01;33.00;78.20
13808;DHT22;40769;51.512;5.494;2023-06-19T11:16:26;33.00;79.20
13808;DHT22;40769;51.512;5.494;2023-06-19T11:19:02;33.00;79.20
13808;DHT22;40769;51.512;5.494;2023-06-19T11:21:36;33.00;76.80
13808;DHT22;40769;51.512;5.494;2023-06-19T11:24:12;33.00;78.20
13808;DHT22;40769;51.512;5.494;2023-06-19T11:26:42;33.00;77.80
13808;DHT22;40769;51.512;5.494;2023-06-19T11:31:44;33.00;77.40
13808;DHT22;40769;51.512;5.494;2023-06-19T11:34:11;33.00;78.30
13808;DHT22;40769;51.512;5.494;2023-06-19T11:36:37;33.10;78.70
13808;DHT22;40769;51.512;5.494;2023-06-19T11:39:04;33.10;78.20
13808;DHT22;40769;51.512;5.494;2023-06-19T11:41:34;33.20;77.90
13808;DHT22;40769;51.512;5.494;2023-06-19T11:44:02;33.30;76.80
13808;DHT22;40769;51.512;5.494;2023-06-19T11:46:29;33.30;76.40
13808;DHT22;40769;51.512;5.494;2023-06-19T11:49:06;33.40;76.40
13808;DHT22;40769;51.512;5.494;2023-06-19T11:51:32;33.50;76.60
13808;DHT22;40769;51.512;5.494;2023-06-19T11:53:57;33.50;76.40
13808;DHT22;40769;51.512;5.494;2023-06-19T11:56:23;33.60;76.40
13808;DHT22;40769;51.512;5.494;2023-06-19T11:58:48;33.70;76.40
13808;DHT22;40769;51.512;5.494;2023-06-19T12:01:14;33.90;76.10
13808;DHT22;40769;51.512;5.494;2023-06-19T12:03:40;34.00;75.00
13808;DHT22;40769;51.512;5.494;2023-06-19T12:06:06;34.20;74.70
13808;DHT22;40769;51.512;5.494;2023-06-19T12:08:32;34.30;74.60
13808;DHT22;40769;51.512;5.494;2023-06-19T12:10:58;34.60;73.50
13808;DHT22;40769;51.512;5.494;2023-06-19T12:13:24;34.70;72.60
13808;DHT22;40769;51.512;5.494;2023-06-19T12:15:49;35.00;73.20
13808;DHT22;40769;51.512;5.494;2023-06-19T12:18:15;35.20;72.00
13808;DHT22;40769;51.512;5.494;2023-06-19T12:20:41;35.40;71.60
13808;DHT22;40769;51.512;5.494;2023-06-19T12:23:07;35.50;70.30
13808;DHT22;40769;51.512;5.494;2023-06-19T12:25:32;35.60;70.00
13808;DHT22;40769;51.512;5.494;2023-06-19T12:27:58;35.80;70.10
13808;DHT22;40769;51.512;5.494;2023-06-19T12:30:24;36.00;69.70
13808;DHT22;40769;51.512;5.494;2023-06-19T12:32:50;36.10;68.70
13808;DHT22;40769;51.512;5.494;2023-06-19T12:35:16;36.30;68.20
13808;DHT22;40769;51.512;5.494;2023-06-19T12:37:42;36.40;67.50
13808;DHT22;40769;51.512;5.494;2023-06-19T12:40:08;36.50;67.40
13808;DHT22;40769;51.512;5.494;2023-06-19T12:42:36;36.50;67.10
13808;DHT22;40769;51.512;5.494;2023-06-19T12:45:03;36.70;66.70
13808;DHT22;40769;51.512;5.494;2023-06-19T12:47:29;36.80;65.30
13808;DHT22;40769;51.512;5.494;2023-06-19T12:49:54;36.90;64.20
13808;DHT22;40769;51.512;5.494;2023-06-19T12:52:20;37.00;63.30
13808;DHT22;40769;51.512;5.494;2023-06-19T12:54:45;37.00;62.40
13808;DHT22;40769;51.512;5.494;2023-06-19T12:57:11;37.00;62.60
13808;DHT22;40769;51.512;5.494;2023-06-19T12:59:36;37.10;62.00
13808;DHT22;40769;51.512;5.494;2023-06-19T13:02:02;37.10;61.60
13808;DHT22;40769;51.512;5.494;2023-06-19T13:04:28;37.10;59.90
13808;DHT22;40769;51.512;5.494;2023-06-19T13:06:54;37.10;59.20
13808;DHT22;40769;51.512;5.494;2023-06-19T13:09:19;37.10;58.90
13808;DHT22;40769;51.512;5.494;2023-06-19T13:11:45;37.10;58.20
13808;DHT22;40769;51.512;5.494;2023-06-19T13:14:10;37.10;58.10
13808;DHT22;40769;51.512;5.494;2023-06-19T13:16:36;37.20;58.60
13808;DHT22;40769;51.512;5.494;2023-06-19T13:19:02;37.20;58.60
13808;DHT22;40769;51.512;5.494;2023-06-19T13:21:27;37.30;58.60
13808;DHT22;40769;51.512;5.494;2023-06-19T13:23:56;37.40;58.90
13808;DHT22;40769;51.512;5.494;2023-06-19T13:26:22;37.50;58.20
13808;DHT22;40769;51.512;5.494;2023-06-19T13:28:47;37.70;58.60
13808;DHT22;40769;51.512;5.494;2023-06-19T13:31:13;37.80;58.70
13808;DHT22;40769;51.512;5.494;2023-06-19T13:33:39;37.90;57.90
13808;DHT22;40769;51.512;5.494;2023-06-19T13:36:04;38.00;57.10
13808;DHT22;40769;51.512;5.494;2023-06-19T13:38:30;38.00;56.60
13808;DHT22;40769;51.512;5.494;2023-06-19T13:40:56;38.00;56.40
13808;DHT22;40769;51.512;5.494;2023-06-19T13:43:22;38.00;56.00
13808;DHT22;40769;51.512;5.494;2023-06-19T13:45:49;38.00;55.90
13808;DHT22;40769;51.512;5.494;2023-06-19T13:48:15;38.00;56.10
13808;DHT22;40769;51.512;5.494;2023-06-19T13:50:40;38.10;55.90
13808;DHT22;40769;51.512;5.494;2023-06-19T13:53:06;38.10;55.60
13808;DHT22;40769;51.512;5.494;2023-06-19T13:55:32;38.20;55.60
13808;DHT22;40769;51.512;5.494;2023-06-19T13:57:57;38.20;55.50
13808;DHT22;40769;51.512;5.494;2023-06-19T14:00:23;38.30;55.40
13808;DHT22;40769;51.512;5.494;2023-06-19T14:02:48;38.40;55.00
13808;DHT22;40769;51.512;5.494;2023-06-19T14:05:15;38.40;54.70
13808;DHT22;40769;51.512;5.494;2023-06-19T14:07:41;38.50;54.80
13808;DHT22;40769;51.512;5.494;2023-06-19T14:10:08;38.50;54.30
13808;DHT22;40769;51.512;5.494;2023-06-19T14:12:34;38.60;54.10
13808;DHT22;40769;51.512;5.494;2023-06-19T14:14:59;38.70;53.80
13808;DHT22;40769;51.512;5.494;2023-06-19T14:17:25;38.70;53.50
13808;DHT22;40769;51.512;5.494;2023-06-19T14:19:51;38.80;53.30
13808;DHT22;40769;51.512;5.494;2023-06-19T14:22:17;38.80;53.00
13808;DHT22;40769;51.512;5.494;2023-06-19T14:24:43;38.80;52.80
13808;DHT22;40769;51.512;5.494;2023-06-19T14:27:09;38.80;52.60
13808;DHT22;40769;51.512;5.494;2023-06-19T14:29:34;38.80;52.60
13808;DHT22;40769;51.512;5.494;2023-06-19T14:32:00;38.80;52.40
13808;DHT22;40769;51.512;5.494;2023-06-19T14:34:26;38.80;52.90
13808;DHT22;40769;51.512;5.494;2023-06-19T14:36:51;38.70;52.60
13808;DHT22;40769;51.512;5.494;2023-06-19T14:39:17;38.80;52.30
13808;DHT22;40769;51.512;5.494;2023-06-19T14:41:43;38.80;51.80
13808;DHT22;40769;51.512;5.494;2023-06-19T14:44:08;38.90;51.70
13808;DHT22;40769;51.512;5.494;2023-06-19T14:46:34;38.90;50.80
13808;DHT22;40769;51.512;5.494;2023-06-19T14:49:11;38.90;50.50
13808;DHT22;40769;51.512;5.494;2023-06-19T14:51:38;38.90;50.20
13808;DHT22;40769;51.512;5.494;2023-06-19T14:54:04;38.90;50.70
13808;DHT22;40769;51.512;5.494;2023-06-19T14:56:29;39.00;50.60
13808;DHT22;40769;51.512;5.494;2023-06-19T14:58:55;39.00;50.30
13808;DHT22;40769;51.512;5.494;2023-06-19T15:01:21;39.10;50.30
13808;DHT22;40769;51.512;5.494;2023-06-19T15:03:46;39.20;50.20
13808;DHT22;40769;51.512;5.494;2023-06-19T15:06:12;39.20;50.10
13808;DHT22;40769;51.512;5.494;2023-06-19T15:08:40;39.30;50.20
13808;DHT22;40769;51.512;5.494;2023-06-19T15:11:06;39.40;49.90
13808;DHT22;40769;51.512;5.494;2023-06-19T15:13:34;39.60;50.20
13808;DHT22;40769;51.512;5.494;2023-06-19T15:16:00;39.80;49.10
13808;DHT22;40769;51.512;5.494;2023-06-19T15:18:26;39.90;49.00
13808;DHT22;40769;51.512;5.494;2023-06-19T15:20:54;39.90;49.10
13808;DHT22;40769;51.512;5.494;2023-06-19T15:23:20;40.00;49.10
13808;DHT22;40769;51.512;5.494;2023-06-19T15:25:45;40.10;49.10
13808;DHT22;40769;51.512;5.494;2023-06-19T15:28:13;40.20;49.00
13808;DHT22;40769;51.512;5.494;2023-06-19T15:30:39;40.40;48.70
13808;DHT22;40769;51.512;5.494;2023-06-19T15:33:04;40.50;48.40
13808;DHT22;40769;51.512;5.494;2023-06-19T15:35:30;40.50;48.20
13808;DHT22;40769;51.512;5.494;2023-06-19T15:37:55;40.50;48.00
13808;DHT22;40769;51.512;5.494;2023-06-19T15:40:33;40.50;47.80
13808;DHT22;40769;51.512;5.494;2023-06-19T15:42:59;40.50;47.70